createdAt,value
2023-08-14T07:10:22.252Z,22.05
2023-08-14T07:12:47.507Z,22.46
2023-08-14T07:13:49.133Z,22.39
2023-08-14T07:14:51.801Z,22.48
2023-08-14T07:15:53.665Z,22.67
2023-08-14T07:16:55.041Z,22.85
2023-08-14T07:17:57.053Z,22.79
2023-08-14T07:18:58.552Z,22.88
2023-08-14T07:20:00.065Z,22.96
2023-08-14T07:21:01.644Z,23.08
2023-08-14T07:22:03.065Z,23.28
2023-08-14T07:23:04.575Z,23.71
2023-08-14T07:24:06.247Z,23.84
2023-08-14T07:25:08.075Z,24.00
2023-08-14T07:26:16.234Z,24.04
2023-08-14T07:27:18.207Z,24.19
2023-08-14T07:28:19.697Z,24.28
2023-08-14T07:29:21.102Z,24.33
2023-08-14T07:30:22.592Z,24.52
2023-08-14T07:31:24.245Z,24.63
2023-08-14T07:32:25.908Z,25.12
2023-08-14T07:33:27.382Z,24.69
2023-08-14T07:34:29.304Z,25.34
2023-08-14T07:35:30.703Z,25.33
2023-08-14T07:36:32.112Z,25.58
2023-08-14T07:37:33.554Z,25.46
2023-08-14T07:38:34.978Z,25.36
2023-08-14T07:39:36.351Z,25.26
2023-08-14T07:40:37.783Z,25.26
2023-08-14T07:41:39.190Z,25.65
2023-08-14T07:42:40.566Z,26.01
2023-08-14T07:43:42.032Z,25.71
2023-08-14T07:44:43.438Z,25.65
2023-08-14T07:45:45.131Z,25.47
2023-08-14T07:46:46.574Z,25.52
2023-08-14T07:47:48.195Z,25.60
2023-08-14T07:48:49.681Z,25.70
2023-08-14T07:49:51.217Z,25.81
2023-08-14T07:50:53.837Z,25.53
2023-08-14T07:51:55.313Z,25.45
2023-08-14T07:52:56.793Z,25.59
2023-08-14T07:53:58.224Z,25.76
2023-08-14T07:54:59.714Z,25.56
2023-08-14T07:56:01.194Z,25.69
2023-08-14T07:57:02.678Z,25.73
2023-08-14T07:58:04.329Z,25.98
2023-08-14T07:59:06.423Z,26.13
2023-08-14T08:00:09.767Z,26.26
2023-08-14T08:01:11.580Z,26.12
2023-08-14T08:02:13.437Z,25.62
2023-08-14T08:03:14.952Z,25.57
2023-08-14T08:05:21.065Z,25.38
2023-08-14T08:06:22.674Z,25.46
2023-08-14T08:07:25.553Z,25.68
2023-08-14T08:08:27.540Z,25.64
2023-08-14T08:09:29.136Z,25.73
2023-08-14T08:10:31.135Z,25.85
2023-08-14T08:11:32.574Z,25.43
2023-08-14T08:12:34.355Z,25.65
2023-08-14T08:13:35.860Z,25.70
2023-08-14T08:14:37.582Z,25.67
2023-08-14T08:15:39.564Z,25.92
2023-08-14T08:16:41.120Z,25.92
2023-08-14T08:17:42.636Z,26.14
2023-08-14T08:18:44.299Z,26.23
2023-08-14T08:19:47.564Z,25.99
2023-08-14T08:20:49.100Z,25.98
2023-08-14T08:21:50.614Z,26.66
2023-08-14T08:22:52.182Z,26.68
2023-08-14T08:23:53.732Z,26.62
2023-08-14T08:24:55.879Z,26.69
2023-08-14T08:25:57.387Z,26.60
2023-08-14T08:26:58.864Z,26.54
2023-08-14T08:28:00.258Z,26.30
2023-08-14T08:29:01.809Z,26.49
2023-08-14T08:30:04.050Z,26.01
2023-08-14T08:31:05.494Z,26.34
2023-08-14T08:32:07.114Z,26.30
2023-08-14T08:33:08.796Z,26.58
2023-08-14T08:34:10.281Z,26.44
2023-08-14T08:35:11.716Z,26.26
2023-08-14T08:36:13.363Z,26.49
2023-08-14T08:37:17.402Z,26.81
2023-08-14T08:38:19.535Z,26.86
2023-08-14T08:39:21.386Z,26.81
2023-08-14T08:40:23.489Z,26.83
2023-08-14T08:41:36.780Z,26.73
2023-08-14T08:42:39.258Z,27.18
2023-08-14T08:43:41.786Z,27.09
2023-08-14T08:44:46.273Z,27.03
2023-08-14T08:45:51.403Z,27.23
2023-08-14T08:47:20.234Z,27.16
2023-08-14T08:48:23.481Z,27.17
2023-08-14T08:49:28.911Z,27.46
2023-08-14T08:50:31.276Z,27.59
2023-08-14T08:51:34.880Z,27.30
2023-08-14T08:52:36.674Z,27.14
2023-08-14T08:53:38.615Z,27.34
2023-08-14T08:54:41.089Z,27.40
2023-08-14T08:55:43.276Z,27.47
2023-08-14T08:56:46.052Z,27.73
2023-08-14T08:57:49.593Z,27.59
2023-08-14T08:58:52.232Z,27.61
2023-08-14T08:59:56.090Z,28.24
2023-08-14T09:00:58.478Z,28.21
2023-08-14T09:02:00.102Z,28.08
2023-08-14T09:03:01.683Z,28.00
2023-08-14T09:04:04.218Z,27.57
2023-08-14T09:05:06.219Z,27.45
2023-08-14T09:06:07.691Z,27.45
2023-08-14T09:07:09.193Z,27.60
2023-08-14T09:08:10.787Z,27.79
2023-08-14T09:09:15.721Z,27.72
2023-08-14T09:10:17.610Z,27.86
2023-08-14T09:11:19.361Z,27.92
2023-08-14T09:12:21.266Z,28.02
2023-08-14T09:13:31.477Z,28.01
2023-08-14T09:14:34.068Z,28.26
2023-08-14T09:16:39.993Z,28.29
2023-08-14T09:17:41.524Z,28.25
2023-08-14T09:18:44.468Z,28.18
2023-08-14T09:19:46.274Z,28.01
2023-08-14T09:20:47.951Z,28.12
2023-08-14T09:21:49.854Z,28.73
2023-08-14T09:22:56.770Z,28.58
2023-08-14T09:23:58.519Z,28.57
2023-08-14T09:25:01.123Z,28.56
2023-08-14T09:26:03.482Z,28.60
2023-08-14T09:27:05.996Z,28.57
2023-08-14T09:28:11.276Z,28.61
2023-08-14T09:30:25.569Z,29.04
2023-08-14T09:31:32.301Z,29.14
2023-08-14T09:32:33.954Z,29.24
2023-08-14T09:33:37.741Z,28.69
2023-08-14T09:34:39.308Z,29.07
2023-08-14T09:35:41.196Z,29.18
2023-08-14T09:36:42.854Z,29.00
2023-08-14T09:37:44.369Z,29.21
2023-08-14T09:38:45.810Z,29.52
2023-08-14T09:39:47.325Z,29.48
2023-08-14T09:40:48.915Z,29.49
2023-08-14T09:41:50.720Z,29.42
2023-08-14T09:42:52.204Z,29.84
2023-08-14T09:43:54.301Z,30.57
2023-08-14T09:44:55.772Z,30.25
2023-08-14T09:45:59.982Z,30.44
2023-08-14T09:47:01.717Z,30.39
2023-08-14T09:48:05.250Z,29.96
2023-08-14T09:49:07.317Z,30.16
2023-08-14T09:50:09.597Z,29.53
2023-08-14T09:51:12.799Z,29.74
2023-08-14T09:52:14.211Z,30.40
2023-08-14T09:53:15.762Z,30.82
2023-08-14T09:54:17.237Z,30.55
2023-08-14T09:55:18.845Z,30.40
2023-08-14T09:56:20.708Z,30.14
2023-08-14T09:57:27.520Z,29.79
2023-08-14T09:58:30.711Z,29.55
2023-08-14T09:59:32.278Z,29.92
2023-08-14T10:00:34.331Z,30.78
2023-08-14T10:01:37.809Z,31.33
2023-08-14T10:02:41.847Z,31.17
2023-08-14T10:03:44.332Z,30.95
2023-08-14T10:04:47.340Z,29.94
2023-08-14T10:05:49.040Z,30.59
2023-08-14T10:06:52.949Z,30.70
2023-08-14T10:07:55.708Z,30.14
2023-08-14T10:09:00.815Z,30.28
2023-08-14T10:10:04.695Z,30.15
2023-08-14T10:11:18.940Z,30.19
2023-08-14T10:12:30.725Z,30.04
2023-08-14T10:13:33.754Z,29.94
2023-08-14T10:14:37.712Z,29.93
2023-08-14T10:15:44.606Z,30.39
2023-08-14T10:16:49.509Z,31.28
2023-08-14T10:17:56.566Z,32.10
2023-08-14T10:19:02.193Z,32.31
2023-08-14T10:20:04.932Z,31.45
2023-08-14T10:21:12.194Z,31.12
2023-08-14T10:22:14.886Z,30.35
2023-08-14T10:23:17.376Z,30.69
2023-08-14T10:24:19.830Z,30.43
2023-08-14T10:25:23.868Z,29.81
2023-08-14T10:26:28.076Z,29.97
2023-08-14T10:27:31.364Z,30.50
2023-08-14T10:28:32.928Z,30.57
2023-08-14T10:29:35.995Z,30.82
2023-08-14T10:30:37.995Z,31.25
2023-08-14T10:31:39.942Z,30.81
2023-08-14T10:32:42.582Z,31.02
2023-08-14T10:33:44.362Z,31.44
2023-08-14T10:34:47.202Z,30.81
2023-08-14T10:35:55.155Z,30.24
2023-08-14T10:36:57.180Z,30.37
2023-08-14T10:38:08.864Z,30.34
2023-08-14T10:40:23.155Z,30.19
2023-08-14T10:41:24.644Z,30.12
2023-08-14T10:42:26.267Z,30.31
2023-08-14T10:43:29.876Z,30.87
2023-08-14T10:44:34.987Z,30.76
2023-08-14T10:45:36.718Z,30.20
2023-08-14T10:46:44.518Z,30.70
2023-08-14T10:47:46.260Z,30.58
2023-08-14T10:48:50.558Z,30.20
2023-08-14T10:49:52.263Z,30.76
2023-08-14T10:51:02.955Z,30.57
2023-08-14T10:52:04.900Z,29.68
2023-08-14T10:53:06.961Z,29.07
2023-08-14T10:54:16.134Z,29.31
2023-08-14T10:55:23.873Z,29.97
2023-08-14T10:56:40.438Z,29.25
2023-08-14T10:57:41.943Z,29.59
2023-08-14T10:58:50.628Z,29.69
2023-08-14T10:59:57.968Z,29.34
2023-08-14T11:01:00.887Z,29.99
2023-08-14T11:02:11.346Z,29.79
2023-08-14T11:03:13.315Z,29.77
2023-08-14T11:04:14.754Z,30.21
2023-08-14T11:05:20.493Z,30.08
2023-08-14T11:06:28.082Z,30.03
2023-08-14T11:07:30.709Z,30.59
2023-08-14T11:08:32.303Z,30.81
2023-08-14T11:09:37.828Z,31.50
2023-08-14T11:10:40.803Z,31.73
2023-08-14T11:11:48.704Z,31.59
2023-08-14T11:12:50.164Z,32.28
2023-08-14T11:13:52.788Z,31.73
2023-08-14T11:14:55.734Z,31.45
2023-08-14T11:15:58.241Z,31.48
2023-08-14T11:16:59.741Z,32.43
2023-08-14T11:18:02.928Z,32.39
2023-08-14T11:19:05.652Z,32.61
2023-08-14T11:20:11.813Z,33.24
2023-08-14T11:21:29.052Z,34.27
2023-08-14T11:22:32.263Z,34.07
2023-08-14T11:23:34.416Z,33.82
2023-08-14T11:24:38.277Z,33.78
2023-08-14T11:25:40.034Z,33.89
2023-08-14T11:26:41.502Z,34.52
2023-08-14T11:27:49.548Z,33.84
2023-08-14T11:28:51.047Z,34.45
2023-08-14T11:29:54.808Z,34.43
2023-08-14T11:30:59.331Z,34.14
2023-08-14T11:32:01.765Z,33.96
2023-08-14T11:33:07.710Z,33.74
2023-08-14T11:34:09.323Z,33.92
2023-08-14T11:35:11.550Z,33.34
2023-08-14T11:36:13.076Z,33.31
2023-08-14T11:37:15.349Z,33.30
2023-08-14T11:38:18.853Z,32.97
2023-08-14T11:39:20.254Z,33.07
2023-08-14T11:40:21.779Z,33.32
2023-08-14T11:41:31.292Z,33.85
2023-08-14T11:42:34.926Z,34.01
2023-08-14T11:43:40.377Z,34.05
2023-08-14T11:44:42.124Z,33.85
2023-08-14T11:45:43.641Z,34.08
2023-08-14T11:46:45.248Z,33.71
2023-08-14T11:47:48.942Z,33.82
2023-08-14T11:48:50.565Z,33.23
2023-08-14T11:49:52.087Z,32.47
2023-08-14T11:50:54.225Z,31.99
2023-08-14T11:51:55.702Z,31.40
2023-08-14T11:52:58.233Z,30.69
2023-08-14T11:54:00.714Z,30.69
2023-08-14T11:55:02.840Z,30.20
2023-08-14T11:56:04.726Z,29.72
2023-08-14T11:57:08.619Z,28.29
2023-08-14T12:04:33.201Z,22.23
2023-08-14T12:05:34.716Z,22.21
2023-08-14T12:06:36.407Z,22.50
2023-08-14T12:07:42.661Z,22.98
2023-08-14T12:08:44.355Z,23.15
2023-08-14T12:09:45.965Z,23.18
2023-08-14T12:10:48.873Z,23.41
2023-08-14T12:11:50.865Z,24.13
2023-08-14T12:12:55.866Z,24.71
2023-08-14T12:13:57.693Z,25.76
2023-08-14T12:15:00.156Z,26.17
2023-08-14T12:16:11.936Z,26.32
2023-08-14T12:17:21.073Z,26.04
2023-08-14T12:18:24.745Z,26.08
2023-08-14T12:19:29.572Z,26.06
2023-08-14T12:20:35.163Z,26.05
2023-08-14T12:21:36.786Z,26.02
2023-08-14T12:22:39.398Z,26.02
2023-08-14T12:23:47.777Z,25.81
2023-08-14T12:24:49.736Z,25.88
2023-08-14T12:25:52.125Z,25.95
2023-08-14T12:26:53.947Z,25.99
2023-08-14T12:27:55.398Z,25.92
2023-08-14T12:28:57.243Z,25.91
2023-08-14T12:29:59.151Z,25.84
2023-08-14T12:31:00.640Z,25.88
2023-08-14T12:32:03.317Z,25.89
2023-08-14T12:33:05.050Z,26.01
2023-08-14T12:34:07.717Z,25.86
2023-08-14T12:35:09.402Z,25.67
2023-08-14T12:36:11.435Z,25.65
2023-08-14T12:37:15.024Z,25.69
2023-08-14T12:38:16.542Z,25.90
2023-08-14T12:39:18.005Z,25.90
2023-08-14T12:40:19.451Z,25.98
2023-08-14T12:41:20.941Z,25.97
2023-08-14T12:42:22.546Z,26.05
2023-08-14T12:43:33.185Z,26.90
2023-08-14T12:44:40.963Z,27.53
2023-08-14T12:45:43.102Z,28.09
2023-08-14T12:46:44.800Z,28.09
2023-08-14T12:47:46.374Z,28.06
2023-08-14T12:48:47.960Z,28.04
2023-08-14T12:49:49.370Z,27.99
2023-08-14T12:50:50.829Z,27.89
2023-08-14T12:51:56.027Z,27.84
2023-08-14T12:52:57.491Z,27.84
2023-08-14T12:53:59.020Z,27.84
2023-08-14T12:56:04.873Z,28.12
2023-08-14T12:58:13.648Z,27.96
2023-08-14T12:59:23.703Z,28.01
2023-08-14T13:00:31.804Z,28.31
2023-08-14T13:01:33.878Z,28.31
2023-08-14T13:02:35.441Z,28.62
2023-08-14T13:03:38.084Z,29.18
2023-08-14T13:05:46.845Z,29.86
2023-08-14T13:06:48.294Z,30.33
2023-08-14T13:07:49.830Z,29.99
2023-08-14T13:08:51.335Z,30.99
2023-08-14T13:09:52.778Z,31.50
2023-08-14T13:10:54.267Z,31.79
2023-08-14T13:11:55.717Z,31.96
2023-08-14T13:12:58.256Z,31.67
2023-08-14T13:13:59.740Z,31.56
2023-08-14T13:15:01.178Z,31.48
2023-08-14T13:16:03.810Z,31.15
2023-08-14T13:17:05.425Z,30.81
2023-08-14T13:18:06.891Z,30.55
2023-08-14T13:19:08.375Z,30.58
2023-08-14T13:20:10.440Z,30.43
2023-08-14T13:21:12.837Z,30.52
2023-08-14T13:22:16.915Z,30.57
2023-08-14T13:23:18.696Z,30.59
2023-08-14T13:24:20.107Z,30.71
2023-08-14T13:25:21.886Z,30.58
2023-08-14T13:26:27.306Z,30.75
2023-08-14T13:27:29.822Z,30.32
2023-08-14T13:28:33.408Z,30.40
2023-08-14T13:29:35.117Z,30.23
2023-08-14T13:30:36.926Z,30.56
2023-08-14T13:31:38.371Z,30.64
2023-08-14T13:32:39.767Z,30.88
2023-08-14T13:33:41.366Z,30.94
2023-08-14T13:34:42.899Z,30.99
2023-08-14T13:35:44.893Z,31.06
2023-08-14T13:36:46.381Z,31.09
2023-08-14T13:37:47.878Z,30.92
2023-08-14T13:38:49.501Z,30.86
2023-08-14T13:39:50.982Z,31.07
2023-08-14T13:40:52.647Z,31.02
2023-08-14T13:41:54.526Z,31.16
2023-08-14T13:42:56.092Z,31.26
2023-08-14T13:43:57.600Z,31.41
2023-08-14T13:45:08.239Z,31.82
2023-08-14T13:46:14.221Z,32.04
2023-08-14T13:47:18.330Z,31.91
2023-08-14T13:48:20.079Z,31.97
2023-08-14T13:49:21.600Z,32.26
2023-08-14T13:50:32.593Z,32.29
2023-08-14T13:51:34.472Z,32.58
2023-08-14T13:52:35.919Z,32.77
2023-08-14T13:53:37.683Z,33.10
2023-08-14T13:54:39.179Z,33.24
2023-08-14T13:55:44.734Z,33.20
2023-08-14T13:56:46.359Z,33.38
2023-08-14T13:57:48.079Z,33.65
2023-08-14T13:58:49.608Z,33.13
2023-08-14T13:59:51.243Z,33.15
2023-08-14T14:00:52.654Z,32.50
2023-08-14T14:01:54.162Z,32.57
2023-08-14T14:02:55.677Z,32.63
2023-08-14T14:03:57.198Z,32.40
2023-08-14T14:04:58.693Z,32.31
2023-08-14T14:06:00.198Z,31.85
2023-08-14T14:07:02.693Z,30.67
2023-08-14T14:08:04.533Z,30.31
2023-08-14T14:09:06.000Z,30.60
2023-08-14T14:10:07.753Z,30.58
2023-08-14T14:11:09.224Z,30.58
2023-08-14T14:12:10.704Z,30.39
2023-08-14T14:13:12.225Z,30.24
2023-08-14T14:14:13.723Z,29.98
2023-08-14T14:15:15.159Z,29.83
2023-08-14T14:16:21.863Z,29.72
2023-08-14T14:17:23.425Z,29.67
2023-08-14T14:18:24.866Z,29.60
2023-08-14T14:19:28.121Z,29.44
2023-08-14T14:20:30.077Z,29.25
2023-08-14T14:21:31.461Z,29.16
2023-08-14T14:22:32.841Z,29.10
2023-08-14T14:23:34.395Z,28.92
2023-08-14T14:24:36.185Z,28.94
2023-08-14T14:25:37.654Z,28.80
2023-08-14T14:26:39.199Z,28.79
2023-08-14T14:27:40.784Z,28.79
2023-08-14T14:28:42.199Z,28.78
2023-08-14T14:29:44.399Z,28.72
2023-08-14T14:30:45.939Z,28.73
2023-08-14T14:31:47.373Z,28.79
2023-08-14T14:32:48.886Z,28.84
2023-08-14T14:33:50.294Z,28.81
2023-08-14T14:34:51.719Z,28.84
2023-08-14T14:35:53.246Z,28.94
2023-08-14T14:36:54.789Z,29.11
2023-08-14T14:37:56.246Z,29.12
2023-08-14T14:38:57.802Z,29.14
2023-08-14T14:39:59.330Z,29.32
2023-08-14T14:41:03.988Z,29.35
2023-08-14T14:42:05.686Z,29.26
2023-08-14T14:43:07.124Z,29.38
2023-08-14T14:44:08.594Z,29.39
2023-08-14T14:45:17.672Z,28.81
2023-08-14T14:46:25.817Z,28.33
2023-08-14T14:47:27.760Z,28.64
2023-08-14T14:48:29.207Z,29.16
2023-08-14T14:49:30.639Z,28.87
2023-08-14T14:50:32.486Z,29.97
2023-08-14T14:51:35.080Z,30.83
2023-08-14T14:52:36.582Z,31.51
2023-08-14T14:53:38.080Z,31.89
2023-08-14T14:54:39.609Z,32.44
2023-08-14T14:55:41.090Z,32.69
2023-08-14T14:56:42.535Z,33.04
2023-08-14T14:57:43.990Z,33.39
2023-08-14T14:58:46.024Z,33.68
2023-08-14T14:59:48.325Z,33.84
2023-08-14T15:00:51.437Z,34.05
2023-08-14T15:01:52.967Z,34.28
2023-08-14T15:02:54.541Z,34.53
2023-08-14T15:03:56.548Z,34.31
2023-08-14T15:04:58.345Z,33.67
2023-08-14T15:05:59.787Z,34.20
2023-08-14T15:07:01.187Z,34.49
2023-08-14T15:08:02.569Z,34.91
2023-08-14T15:09:04.174Z,34.95
2023-08-14T15:10:06.360Z,34.92
2023-08-14T15:11:08.396Z,35.20
2023-08-14T15:12:09.868Z,35.50
2023-08-14T15:13:11.381Z,35.69
2023-08-14T15:14:13.066Z,35.83
2023-08-14T15:15:14.702Z,35.93
2023-08-14T15:16:16.245Z,35.94
2023-08-14T15:17:17.977Z,35.96
2023-08-14T15:18:19.786Z,36.30
2023-08-14T15:19:21.554Z,35.77
2023-08-14T15:20:23.040Z,35.80
2023-08-14T15:21:24.435Z,35.50
2023-08-14T15:22:25.924Z,35.71
2023-08-14T15:23:27.281Z,35.93
2023-08-14T15:24:28.697Z,35.56
2023-08-14T15:25:31.973Z,35.57
2023-08-14T15:26:33.387Z,35.59
2023-08-14T15:27:34.981Z,34.65
2023-08-14T15:28:36.375Z,34.60
2023-08-14T15:29:38.088Z,34.42
2023-08-14T15:30:43.146Z,34.81
2023-08-14T15:31:44.772Z,34.06
2023-08-14T15:32:46.283Z,31.80
2023-08-14T15:33:47.937Z,31.37
2023-08-14T15:34:51.556Z,32.29
2023-08-14T15:35:52.954Z,32.70
2023-08-14T15:36:54.431Z,33.01
2023-08-14T15:37:55.826Z,33.56
2023-08-14T15:38:57.242Z,33.60
2023-08-14T15:39:58.771Z,33.08
2023-08-14T15:41:00.369Z,32.83
2023-08-14T15:42:01.825Z,32.15
2023-08-14T15:43:05.072Z,33.00
2023-08-14T15:44:09.102Z,33.11
2023-08-14T15:45:12.706Z,32.28
2023-08-14T15:46:15.790Z,33.05
2023-08-14T15:47:17.803Z,32.82
2023-08-14T15:48:19.733Z,32.18
2023-08-14T15:49:21.182Z,31.73
2023-08-14T15:50:22.598Z,32.46
2023-08-14T15:51:24.047Z,32.62
2023-08-14T15:52:31.546Z,32.55
2023-08-14T15:53:33.228Z,33.69
2023-08-14T15:54:51.328Z,34.02
2023-08-14T15:55:54.910Z,34.49
2023-08-14T15:56:56.296Z,33.49
2023-08-14T15:57:57.857Z,32.96
2023-08-14T15:58:59.271Z,32.23
2023-08-14T16:00:07.730Z,31.97
2023-08-14T16:01:09.199Z,31.63
2023-08-14T16:02:10.660Z,31.81
2023-08-14T16:03:12.320Z,32.40
2023-08-14T16:04:14.815Z,32.88
2023-08-14T16:05:16.475Z,33.30
2023-08-14T16:06:17.968Z,33.69
2023-08-14T16:07:20.070Z,33.47
2023-08-14T16:08:21.754Z,33.94
2023-08-14T16:09:23.145Z,34.34
2023-08-14T16:10:24.657Z,32.74
2023-08-14T16:11:26.106Z,32.40
2023-08-14T16:12:27.511Z,32.83
2023-08-14T16:13:28.942Z,33.56
2023-08-14T16:14:30.400Z,32.51
2023-08-14T16:15:32.615Z,33.02
2023-08-14T16:16:34.062Z,32.24
2023-08-14T16:17:35.822Z,33.17
2023-08-14T16:18:37.670Z,33.41
2023-08-14T16:19:39.990Z,33.29
2023-08-14T16:20:41.639Z,32.87
2023-08-14T16:21:43.051Z,33.18
2023-08-14T16:22:44.533Z,32.96
2023-08-14T16:23:45.954Z,33.12
2023-08-14T16:24:47.354Z,33.34
2023-08-14T16:25:49.113Z,32.35
2023-08-14T16:26:50.570Z,32.59
2023-08-14T16:27:51.988Z,32.80
2023-08-14T16:28:53.429Z,32.85
2023-08-14T16:29:55.785Z,32.82
2023-08-14T16:30:57.528Z,33.01
2023-08-14T16:31:58.965Z,32.83
2023-08-14T16:33:01.545Z,31.68
2023-08-14T16:34:03.244Z,31.50
2023-08-14T16:35:05.517Z,31.26
2023-08-14T16:36:07.318Z,31.23
2023-08-14T16:37:08.778Z,30.25
2023-08-14T16:38:10.166Z,30.49
2023-08-14T16:39:14.279Z,30.45
2023-08-14T16:40:17.328Z,30.67
2023-08-14T16:41:18.953Z,30.69
2023-08-14T16:42:20.403Z,30.64
2023-08-14T16:43:21.822Z,30.44
2023-08-14T16:44:23.305Z,30.67
2023-08-14T16:45:25.520Z,30.75
2023-08-14T16:46:27.136Z,31.02
2023-08-14T16:47:29.409Z,30.66
2023-08-14T16:48:30.892Z,30.69
2023-08-14T16:49:32.521Z,31.18
2023-08-14T16:50:37.324Z,31.22
2023-08-14T16:51:38.751Z,31.16
2023-08-14T16:52:40.192Z,31.18
2023-08-14T16:53:41.732Z,31.33
2023-08-14T16:54:43.779Z,31.48
2023-08-14T16:55:45.335Z,31.31
2023-08-14T16:56:46.778Z,31.12
2023-08-14T16:57:48.254Z,31.01
2023-08-14T16:58:49.747Z,30.57
2023-08-14T16:59:51.281Z,30.72
2023-08-14T17:00:54.099Z,30.41
2023-08-14T17:01:55.591Z,30.50
2023-08-14T17:02:57.978Z,30.18
2023-08-14T17:03:59.607Z,29.86
2023-08-14T17:05:01.061Z,29.49
2023-08-14T17:06:03.567Z,29.41
2023-08-14T17:07:05.137Z,29.00
2023-08-14T17:08:06.986Z,28.96
2023-08-14T17:09:09.470Z,28.86
2023-08-14T17:10:11.453Z,28.77
2023-08-14T17:11:12.927Z,29.11
2023-08-14T17:12:14.540Z,28.82
2023-08-14T17:13:15.944Z,28.58
2023-08-14T17:23:26.491Z,28.39
2023-08-14T17:24:28.135Z,28.41
2023-08-14T17:30:38.189Z,28.54
2023-08-14T17:31:39.668Z,28.52
2023-08-14T17:32:41.140Z,28.54
2023-08-14T17:38:25.286Z,28.43
2023-08-14T17:39:26.791Z,28.37
2023-08-14T17:40:28.669Z,28.41
2023-08-14T17:46:30.402Z,28.39
2023-08-14T17:47:34.800Z,28.37
2023-08-14T17:48:36.347Z,28.32
2023-08-14T17:55:05.055Z,28.21
2023-08-14T18:01:02.849Z,27.88
